Time;durP1;ratioP1;P1;durP2;ratioP2;P2;SDS_P1;SDS_P2;PMS_P1;PMS_P2;Temp;Humidity;BMP_temperature;BMP_pressure;BME280_temperature;BME280_humidity;BME280_pressure;Samples;Min_cycle;Max_cycle;Signal;HPM_P1;HPM_P2
2024/04/12 04:47:53;;;;;;;9.98;6.20;;;8.60;90.60;;;;;;4343016;22;19938;-79
2024/04/12 04:49:55;;;;;;;10.82;6.00;;;8.60;90.40;;;;;;4337551;27;20018;-78
2024/04/12 04:52:00;;;;;;;9.35;5.80;;;8.70;90.30;;;;;;4335430;27;20018;-79
2024/04/12 04:54:02;;;;;;;9.80;5.95;;;8.70;90.20;;;;;;4340628;27;20104;-78
2024/04/12 04:56:06;;;;;;;9.98;5.57;;;8.70;90.10;;;;;;4344146;27;20404;-78
2024/04/12 04:58:08;;;;;;;8.60;5.07;;;8.70;90.10;;;;;;4369480;27;20431;-77
2024/04/12 05:00:18;;;;;;;9.30;4.20;;;8.70;90.00;;;;;;4335594;27;20023;-80
2024/04/12 05:02:19;;;;;;;7.90;4.20;;;8.80;89.30;;;;;;4341736;27;19999;-78
2024/04/12 05:04:31;;;;;;;10.25;4.65;;;8.70;87.90;;;;;;4339371;27;20467;-78
2024/04/12 05:06:31;;;;;;;9.82;4.75;;;8.70;87.80;;;;;;4338956;27;20011;-79
2024/04/12 05:08:35;;;;;;;8.85;4.50;;;8.70;88.60;;;;;;4341500;27;20011;-79
2024/04/12 05:10:36;;;;;;;7.63;4.40;;;8.70;88.70;;;;;;4341210;27;20428;-79
2024/04/12 05:12:43;;;;;;;10.20;4.57;;;8.70;88.70;;;;;;4341584;27;20014;-79
2024/04/12 05:14:54;;;;;;;8.73;4.45;;;8.70;88.60;;;;;;4339463;27;20018;-78
2024/04/12 05:16:58;;;;;;;8.10;4.90;;;8.80;88.80;;;;;;4333761;27;20008;-79
2024/04/12 05:19:08;;;;;;;9.82;4.60;;;8.80;88.90;;;;;;4326749;27;19999;-79
2024/04/12 05:21:14;;;;;;;8.15;4.78;;;8.80;89.20;;;;;;4321859;27;20018;-79
2024/04/12 05:23:16;;;;;;;9.50;4.70;;;8.80;89.20;;;;;;4340682;27;20408;-79
2024/04/12 05:25:22;;;;;;;12.38;5.53;;;8.80;89.20;;;;;;4338203;27;20022;-79
2024/04/12 05:27:24;;;;;;;8.02;4.90;;;8.80;89.40;;;;;;4325853;27;20022;-76
2024/04/12 05:29:28;;;;;;;8.90;4.53;;;8.90;89.50;;;;;;4340139;27;20007;-79
2024/04/12 05:31:30;;;;;;;9.93;4.70;;;8.90;89.60;;;;;;4341405;27;20003;-78
2024/04/12 05:33:33;;;;;;;8.40;4.40;;;8.90;89.60;;;;;;4339193;27;20006;-79
2024/04/12 05:35:37;;;;;;;8.02;4.72;;;8.90;89.60;;;;;;4338097;27;20461;-80
2024/04/12 05:37:43;;;;;;;12.77;5.40;;;8.90;89.40;;;;;;4320588;27;20039;-80
2024/04/12 05:39:47;;;;;;;10.23;4.75;;;8.90;89.40;;;;;;4335488;27;20007;-76
2024/04/12 05:41:53;;;;;;;9.23;4.57;;;8.90;89.20;;;;;;4341136;27;20018;-79
2024/04/12 05:43:56;;;;;;;9.93;4.93;;;9.00;89.70;;;;;;4341531;27;20324;-79
2024/04/12 05:45:58;;;;;;;12.13;4.95;;;9.00;89.50;;;;;;4341129;27;20453;-79
2024/04/12 05:48:11;;;;;;;10.27;4.97;;;9.00;89.60;;;;;;4341276;27;20019;-79
2024/04/12 05:50:12;;;;;;;11.10;5.03;;;9.00;89.50;;;;;;4337147;27;20021;-77
2024/04/12 05:52:19;;;;;;;7.85;4.95;;;9.00;89.70;;;;;;4329361;27;20083;-80
2024/04/12 05:54:23;;;;;;;9.45;4.80;;;8.90;90.10;;;;;;4313894;27;20082;-78
2024/04/12 05:56:29;;;;;;;8.88;4.97;;;8.90;89.70;;;;;;4320093;27;20014;-79
2024/04/12 05:58:30;;;;;;;;;;;8.80;90.20;;;;;;4342012;27;20015;-74
2024/04/12 06:00:33;;;;;;;9.75;4.40;;;8.80;90.30;;;;;;4340854;27;19927;-77
2024/04/12 06:02:34;;;;;;;7.57;4.55;;;8.80;90.00;;;;;;4341001;27;20336;-80
2024/04/12 06:04:38;;;;;;;8.95;4.70;;;8.90;90.00;;;;;;4351002;27;20006;-80
2024/04/12 06:06:42;;;;;;;9.10;4.82;;;8.90;90.00;;;;;;4346491;27;20026;-78
2024/04/12 06:08:47;;;;;;;10.32;5.00;;;8.80;90.10;;;;;;4341125;27;20010;-79
2024/04/12 06:10:50;;;;;;;10.40;4.97;;;8.90;90.00;;;;;;4340073;27;20086;-77
2024/04/12 06:12:54;;;;;;;9.90;5.45;;;8.90;90.00;;;;;;4340942;27;20429;-77
2024/04/12 06:14:57;;;;;;;10.15;5.15;;;9.00;90.10;;;;;;4340570;27;20010;-79
2024/04/12 06:17:06;;;;;;;10.05;5.03;;;9.00;90.00;;;;;;4341070;27;20017;-78
2024/04/12 06:19:07;;;;;;;10.43;5.45;;;9.10;90.10;;;;;;4339355;27;20086;-78
2024/04/12 06:21:11;;;;;;;9.55;5.43;;;9.10;90.10;;;;;;4341209;27;20019;-78
2024/04/12 06:23:12;;;;;;;11.73;5.32;;;9.10;90.30;;;;;;4333757;27;20011;-79
2024/04/12 06:25:15;;;;;;;10.57;5.40;;;9.10;90.10;;;;;;4338892;27;20344;-79
2024/04/12 06:27:29;;;;;;;12.10;6.15;;;9.20;90.20;;;;;;4340565;27;20007;-80
2024/04/12 06:29:34;;;;;;;10.93;5.45;;;9.20;90.00;;;;;;4339064;27;20003;-77
2024/04/12 06:31:35;;;;;;;10.10;5.78;;;9.20;90.00;;;;;;4340873;27;19999;-78
2024/04/12 06:33:39;;;;;;;10.05;6.07;;;9.20;90.30;;;;;;4338653;27;20453;-78
2024/04/12 06:35:44;;;;;;;10.80;5.90;;;9.20;90.30;;;;;;4338567;27;20003;-80
2024/04/12 06:37:47;;;;;;;12.98;6.25;;;9.30;90.30;;;;;;4333513;27;20019;-80
2024/04/12 06:39:48;;;;;;;12.55;6.45;;;9.30;90.20;;;;;;4338328;27;20010;-79
2024/04/12 06:41:53;;;;;;;13.07;6.40;;;9.20;90.50;;;;;;4340411;27;20003;-80
2024/04/12 06:43:56;;;;;;;10.95;6.20;;;9.30;90.50;;;;;;4345526;27;20003;-78
2024/04/12 06:46:07;;;;;;;11.50;6.40;;;9.30;90.50;;;;;;4352219;27;20007;-79
2024/04/12 06:48:10;;;;;;;10.50;6.53;;;9.30;90.50;;;;;;4323271;27;20440;-79
2024/04/12 06:50:13;;;;;;;12.05;6.45;;;9.30;90.80;;;;;;4332721;27;20007;-79
2024/04/12 06:52:20;;;;;;;11.13;6.28;;;9.10;91.20;;;;;;4331486;27;20004;-78
2024/04/12 06:54:23;;;;;;;14.32;6.88;;;9.20;91.40;;;;;;4327045;27;20329;-79
2024/04/12 06:56:25;;;;;;;8.73;5.78;;;9.30;91.30;;;;;;4334837;27;20021;-81
2024/04/12 06:58:29;;;;;;;11.40;5.68;;;9.30;90.90;;;;;;4324490;27;20015;-77
2024/04/12 07:00:37;;;;;;;10.23;6.03;;;9.40;91.00;;;;;;4324051;27;20027;-80
2024/04/12 07:02:40;;;;;;;10.13;5.50;;;9.50;90.80;;;;;;4321163;27;20014;-79
2024/04/12 07:04:48;;;;;;;10.25;6.07;;;9.60;90.50;;;;;;4329567;27;19999;-79
2024/04/12 07:06:56;;;;;;;13.38;6.03;;;9.60;90.70;;;;;;4331354;27;20481;-79
2024/04/12 07:08:57;;;;;;;10.52;6.13;;;9.60;90.40;;;;;;4334648;27;20704;-78
2024/04/12 07:11:06;;;;;;;10.43;6.50;;;9.60;90.50;;;;;;4322450;27;20044;-79
2024/04/12 07:13:07;;;;;;;10.82;6.22;;;9.70;90.50;;;;;;4333842;27;19999;-80
2024/04/12 07:15:12;;;;;;;10.02;6.43;;;9.70;90.30;;;;;;4314655;27;20011;-80
2024/04/12 07:17:20;;;;;;;11.57;6.30;;;9.80;90.20;;;;;;4326021;27;20017;-79
2024/04/12 07:19:26;;;;;;;8.95;5.90;;;9.80;90.00;;;;;;4326302;27;20004;-79
2024/04/12 07:21:27;;;;;;;10.30;6.20;;;9.90;90.10;;;;;;4335058;27;20027;-78
2024/04/12 07:23:31;;;;;;;12.57;6.28;;;9.90;90.10;;;;;;4336817;27;20508;-80
2024/04/12 07:25:33;;;;;;;11.48;5.95;;;10.00;90.10;;;;;;4320581;27;20004;-81
2024/04/12 07:27:41;;;;;;;10.40;6.07;;;10.10;90.10;;;;;;4330538;27;20437;-79
2024/04/12 07:29:44;;;;;;;9.95;5.80;;;10.20;90.10;;;;;;4335738;27;20329;-79
2024/04/12 07:31:52;;;;;;;7.68;5.00;;;10.30;89.30;;;;;;4335331;27;20085;-77
2024/04/12 07:33:59;;;;;;;11.48;5.45;;;10.30;89.20;;;;;;4314815;27;20000;-79
2024/04/12 07:36:02;;;;;;;12.45;5.63;;;10.40;89.00;;;;;;4324083;27;20385;-79
2024/04/12 07:38:08;;;;;;;9.95;5.43;;;10.50;89.30;;;;;;4325539;27;20011;-79
2024/04/12 07:40:15;;;;;;;10.70;6.40;;;10.60;89.10;;;;;;4333885;27;19998;-78
2024/04/12 07:42:19;;;;;;;11.95;6.45;;;10.70;89.00;;;;;;4313158;27;20016;-79
2024/04/12 07:44:24;;;;;;;11.63;5.53;;;10.80;88.70;;;;;;4328480;27;20068;-79
2024/04/12 07:46:33;;;;;;;11.43;5.60;;;10.80;88.50;;;;;;4326213;27;20018;-79
2024/04/12 07:48:36;;;;;;;12.73;6.03;;;10.90;88.20;;;;;;4329118;27;20243;-79
2024/04/12 07:50:42;;;;;;;12.50;5.70;;;10.90;87.30;;;;;;4331126;27;20000;-78
2024/04/12 07:52:44;;;;;;;12.07;5.53;;;11.00;87.10;;;;;;4323978;27;20032;-79
2024/04/12 07:54:48;;;;;;;11.88;5.30;;;11.10;86.70;;;;;;4334103;27;19999;-79
2024/04/12 07:57:07;;;;;;;13.10;5.90;;;11.20;84.40;;;;;;4330802;27;20003;-80
2024/04/12 07:59:17;;;;;;;8.60;5.28;;;11.30;83.30;;;;;;4314390;27;20003;-80
2024/04/12 08:01:18;;;;;;;10.38;5.40;;;11.30;83.10;;;;;;4315963;27;20032;-78
2024/04/12 08:03:26;;;;;;;9.73;5.28;;;11.40;83.30;;;;;;4336873;27;20035;-79
2024/04/12 08:05:28;;;;;;;9.82;5.25;;;11.50;83.30;;;;;;4327707;27;20026;-78
2024/04/12 08:07:38;;;;;;;8.57;5.57;;;11.50;83.50;;;;;;4330238;27;20023;-76
2024/04/12 08:09:42;;;;;;;12.10;5.72;;;11.60;84.80;;;;;;4314549;27;20004;-77
2024/04/12 08:11:51;;;;;;;9.90;6.10;;;11.60;85.60;;;;;;4327402;27;20007;-79
2024/04/12 08:13:53;;;;;;;11.82;6.05;;;11.70;85.80;;;;;;4322573;27;19999;-78
2024/04/12 08:15:59;;;;;;;9.27;6.05;;;11.70;85.70;;;;;;4329421;27;20003;-78
2024/04/12 08:18:03;;;;;;;10.25;6.22;;;11.80;86.30;;;;;;4336033;27;20099;-79
2024/04/12 08:20:13;;;;;;;9.50;5.70;;;11.80;85.70;;;;;;4337347;27;20504;-76
2024/04/12 08:22:20;;;;;;;12.52;5.80;;;11.90;85.30;;;;;;4322937;27;19999;-77
2024/04/12 08:24:24;;;;;;;9.80;5.95;;;12.00;84.00;;;;;;4337802;27;20014;-80
2024/04/12 08:26:27;;;;;;;11.48;6.50;;;12.10;83.60;;;;;;4330956;27;20340;-80
2024/04/12 08:28:30;;;;;;;9.75;6.40;;;12.10;81.70;;;;;;4325271;27;20010;-81
2024/04/12 08:30:32;;;;;;;10.90;6.60;;;12.20;81.70;;;;;;4314309;27;20143;-78
2024/04/12 08:32:35;;;;;;;10.80;6.20;;;12.30;80.90;;;;;;4333586;27;20388;-79
2024/04/12 08:34:42;;;;;;;10.60;6.38;;;12.40;81.10;;;;;;4326790;27;20328;-77
2024/04/12 08:36:45;;;;;;;10.70;6.00;;;12.50;81.00;;;;;;4324420;27;20000;-78
2024/04/12 08:39:12;;;;;;;11.82;6.40;;;12.60;80.70;;;;;;4317698;27;20000;-78
2024/04/12 08:41:15;;;;;;;11.88;6.47;;;12.60;80.80;;;;;;4313263;27;20322;-80
2024/04/12 08:43:41;;;;;;;12.27;6.78;;;12.70;80.60;;;;;;4313634;27;20014;-79
2024/04/12 08:45:44;;;;;;;14.07;6.30;;;12.80;80.00;;;;;;4313416;27;20004;-79
2024/04/12 08:47:56;;;;;;;12.63;6.40;;;12.90;79.80;;;;;;4332234;27;20070;-86
2024/04/12 08:50:03;;;;;;;11.45;6.10;;;13.00;80.40;;;;;;4338202;27;20015;-81
2024/04/12 08:52:24;;;;;;;11.95;6.20;;;13.00;79.90;;;;;;4336471;27;20007;-82
2024/04/12 08:54:26;;;;;;;12.65;6.70;;;13.10;79.50;;;;;;4336935;27;20011;-84
2024/04/12 08:56:34;;;;;;;11.00;6.50;;;13.20;78.90;;;;;;4341309;27;20453;-84
2024/04/12 08:58:36;;;;;;;12.90;7.55;;;13.30;78.20;;;;;;4329657;27;19999;-82
2024/04/12 09:00:42;;;;;;;12.32;7.18;;;13.40;77.40;;;;;;4355741;27;20010;-79
2024/04/12 09:02:50;;;;;;;11.63;6.85;;;13.50;76.70;;;;;;4326542;27;19999;-79
2024/04/12 09:04:54;;;;;;;11.35;6.05;;;13.50;77.30;;;;;;4314793;27;20015;-81
2024/04/12 09:06:58;;;;;;;9.23;6.13;;;13.60;78.90;;;;;;4323862;27;20018;-79
2024/04/12 09:09:02;;;;;;;9.60;5.95;;;13.60;79.20;;;;;;4347917;27;20047;-76
2024/04/12 09:11:05;;;;;;;14.38;6.22;;;13.70;78.50;;;;;;4344717;27;20437;-80
2024/04/12 09:13:14;;;;;;;11.90;6.30;;;13.80;79.60;;;;;;4321081;27;20003;-81
2024/04/12 09:15:24;;;;;;;10.23;6.28;;;13.90;79.70;;;;;;4342756;27;20014;-78
2024/04/12 09:17:29;;;;;;;9.63;6.13;;;14.00;79.20;;;;;;4332700;27;20011;-78
2024/04/12 09:19:38;;;;;;;13.23;6.38;;;14.00;78.50;;;;;;4320519;27;20008;-79
2024/04/12 09:21:47;;;;;;;11.30;6.05;;;14.00;77.50;;;;;;4337251;27;20309;-77
2024/04/12 09:23:50;;;;;;;14.68;7.07;;;14.10;77.20;;;;;;4324465;27;20004;-79
2024/04/12 09:25:56;;;;;;;16.50;7.38;;;14.20;77.60;;;;;;4316106;27;20377;-79
2024/04/12 09:27:57;;;;;;;12.93;6.78;;;14.30;77.10;;;;;;4335023;27;20011;-79
2024/04/12 09:32:50;;;;;;;10.88;7.18;;;14.30;75.90;;;;;;4321874;27;20003;-80
2024/04/12 09:34:47;;;;;;;13.73;7.88;;;14.50;74.40;;;;;;4317665;27;20063;-79
2024/04/12 09:36:56;;;;;;;12.27;7.60;;;14.60;72.50;;;;;;4335021;27;20441;-78
2024/04/12 09:38:59;;;;;;;13.68;7.47;;;14.70;71.60;;;;;;4322293;27;20015;-78
2024/04/12 09:41:27;;;;;;;13.88;7.88;;;14.80;73.10;;;;;;4314931;27;20082;-79
2024/04/12 09:43:29;;;;;;;12.93;7.50;;;14.80;72.70;;;;;;4334817;27;20075;-79
2024/04/12 09:45:45;;;;;;;14.50;7.72;;;14.80;72.90;;;;;;4336471;27;20021;-79
2024/04/12 10:37:39;;;;;;;9.07;4.40;;;16.40;59.30;;;;;;4343021;27;20376;-80
2024/04/12 10:39:49;;;;;;;8.90;4.68;;;16.50;59.20;;;;;;4340627;27;20010;-80
2024/04/12 10:41:53;;;;;;;8.60;4.30;;;16.60;59.30;;;;;;4340684;27;20429;-79
2024/04/12 10:43:55;;;;;;;9.35;4.68;;;16.60;59.30;;;;;;4340699;27;19999;-76
2024/04/12 10:46:04;;;;;;;8.95;3.90;;;16.70;59.50;;;;;;4340761;27;20021;-79
2024/04/12 10:48:06;;;;;;;8.68;4.15;;;16.70;58.50;;;;;;4340346;27;20321;-80
2024/04/12 10:50:10;;;;;;;10.45;4.88;;;16.80;57.50;;;;;;4339037;27;20103;-78
2024/04/12 10:52:14;;;;;;;8.93;4.68;;;16.80;57.30;;;;;;4340272;27;20026;-79
2024/04/12 10:54:23;;;;;;;9.18;3.72;;;16.90;55.90;;;;;;4340543;27;20003;-80
2024/04/12 10:56:26;;;;;;;7.53;3.92;;;17.00;55.80;;;;;;4340499;27;20027;-80
2024/04/12 10:58:33;;;;;;;7.45;4.07;;;17.10;55.10;;;;;;4340182;27;20074;-79
2024/04/12 11:00:35;;;;;;;8.75;3.60;;;17.20;56.10;;;;;;4340388;27;19999;-79
2024/04/12 11:02:36;;;;;;;7.57;3.60;;;17.30;53.80;;;;;;4340461;27;19999;-78
2024/04/12 11:06:55;;;;;;;6.78;2.47;;;17.40;50.70;;;;;;4340331;27;20003;-77
2024/04/12 11:09:00;;;;;;;5.32;2.30;;;17.50;49.60;;;;;;4340553;27;20051;-79
2024/04/12 11:13:28;;;;;;;9.00;2.95;;;17.70;49.30;;;;;;4340461;27;20003;-77
2024/04/12 11:32:12;;;;;;;7.70;3.08;;;18.60;48.40;;;;;;4342358;27;20014;-78
2024/04/12 11:34:17;;;;;;;6.20;2.83;;;18.70;49.50;;;;;;4340247;27;20085;-78
2024/04/12 11:36:23;;;;;;;7.20;3.10;;;18.70;48.60;;;;;;4340370;27;20011;-78
2024/04/12 11:38:24;;;;;;;8.30;2.67;;;18.70;48.80;;;;;;4340344;27;20082;-78
2024/04/12 11:40:32;;;;;;;6.18;2.70;;;18.80;48.60;;;;;;4340019;27;20409;-79
2024/04/12 11:42:37;;;;;;;6.45;2.72;;;18.80;49.50;;;;;;4340082;27;20519;-78
2024/04/12 11:44:44;;;;;;;7.22;2.33;;;18.80;49.50;;;;;;4339961;27;20014;-77
2024/04/12 11:46:50;;;;;;;6.03;2.08;;;18.90;48.10;;;;;;4339594;27;20015;-76
2024/04/12 11:48:56;;;;;;;7.63;2.63;;;19.00;48.90;;;;;;4339857;27;20002;-78
2024/04/12 11:50:57;;;;;;;7.35;2.40;;;19.10;50.50;;;;;;4339854;27;20011;-78
2024/04/12 11:53:06;;;;;;;6.65;2.05;;;19.20;49.50;;;;;;4339549;27;20078;-78
2024/04/12 11:55:07;;;;;;;8.60;2.60;;;19.30;49.60;;;;;;4339815;27;20318;-79
2024/04/12 11:57:13;;;;;;;6.35;2.35;;;19.30;49.10;;;;;;4339812;27;20010;-79
2024/04/12 11:59:18;;;;;;;6.18;2.35;;;19.40;47.70;;;;;;4339777;27;20014;-78
2024/04/12 12:01:21;;;;;;;7.32;2.45;;;19.40;47.50;;;;;;4339849;27;20015;-79
2024/04/12 12:03:25;;;;;;;6.47;2.35;;;19.50;47.20;;;;;;4339824;27;20003;-78
2024/04/12 12:05:29;;;;;;;7.40;2.67;;;19.60;48.40;;;;;;4339864;27;20030;-77
2024/04/12 12:07:29;;;;;;;5.85;2.30;;;19.60;48.30;;;;;;4339822;27;20003;-75
2024/04/12 12:09:36;;;;;;;5.88;2.30;;;19.70;47.80;;;;;;4336681;27;20377;-79
2024/04/12 12:11:37;;;;;;;5.75;2.50;;;19.80;47.20;;;;;;4338673;27;20003;-79
2024/04/12 12:13:44;;;;;;;8.13;2.70;;;19.80;47.10;;;;;;4338550;27;20003;-79
2024/04/12 12:15:45;;;;;;;7.15;2.30;;;19.90;47.70;;;;;;4337367;27;20021;-79
2024/04/12 12:17:48;;;;;;;6.55;2.40;;;20.00;48.30;;;;;;4339251;27;20344;-77
2024/04/12 12:19:51;;;;;;;7.28;2.08;;;20.10;48.40;;;;;;4337797;27;20019;-78
2024/04/12 12:21:54;;;;;;;5.63;2.38;;;20.10;47.90;;;;;;4339583;27;20007;-79
2024/04/12 12:23:55;;;;;;;5.57;1.83;;;20.20;46.00;;;;;;4338962;27;20007;-79
2024/04/12 12:25:59;;;;;;;5.03;1.83;;;20.20;40.20;;;;;;4335847;27;20322;-78
2024/04/12 12:28:00;;;;;;;6.75;2.05;;;20.20;39.40;;;;;;4326598;27;20007;-79
2024/04/12 12:30:14;;;;;;;6.68;2.17;;;20.30;41.00;;;;;;4322503;27;20014;-79
2024/04/12 12:32:15;;;;;;;5.38;2.22;;;20.40;39.50;;;;;;4317953;27;20437;-79
2024/04/12 12:34:18;;;;;;;7.78;2.30;;;20.40;39.90;;;;;;4311552;27;20014;-77
2024/04/12 12:36:21;;;;;;;5.72;2.50;;;20.50;40.40;;;;;;4315009;27;20020;-76
2024/04/12 12:38:25;;;;;;;5.47;2.15;;;20.50;40.40;;;;;;4318190;27;20004;-79
2024/04/12 12:40:29;;;;;;;4.70;1.90;;;20.60;40.60;;;;;;4324923;27;20035;-79
2024/04/12 12:42:37;;;;;;;4.83;1.83;;;20.70;40.40;;;;;;4314167;27;20004;-82
2024/04/12 12:44:38;;;;;;;6.60;1.80;;;20.90;41.40;;;;;;4321377;27;20003;-79
2024/04/12 12:46:44;;;;;;;5.97;2.03;;;20.90;38.30;;;;;;4318824;27;20014;-78
2024/04/12 12:48:45;;;;;;;6.57;2.22;;;20.90;37.90;;;;;;4314388;27;20007;-78
2024/04/12 12:50:50;;;;;;;6.88;2.30;;;20.80;38.10;;;;;;4325189;27;20004;-78
2024/04/12 12:52:51;;;;;;;7.50;2.03;;;20.80;38.40;;;;;;4318352;27;20007;-80
2024/04/12 12:54:58;;;;;;;5.60;2.30;;;21.00;38.10;;;;;;4318051;27;20350;-80
2024/04/12 12:56:59;;;;;;;7.78;2.08;;;20.90;36.60;;;;;;4322073;27;20100;-79
2024/04/12 12:59:02;;;;;;;7.00;2.25;;;21.10;37.00;;;;;;4316991;27;20326;-79
2024/04/12 13:01:07;;;;;;;6.35;2.13;;;21.20;37.30;;;;;;4325459;27;20014;-82
2024/04/12 13:03:17;;;;;;;5.88;2.33;;;21.40;37.20;;;;;;4322390;27;20011;-82
2024/04/12 13:05:19;;;;;;;5.30;2.28;;;21.70;38.20;;;;;;4325773;27;20014;-79
2024/04/12 13:07:23;;;;;;;6.70;2.17;;;21.70;37.60;;;;;;4313982;27;20004;-81
2024/04/12 13:09:24;;;;;;;5.82;2.22;;;22.00;38.70;;;;;;4322229;27;20007;-82
2024/04/12 13:11:27;;;;;;;5.45;1.90;;;22.10;37.60;;;;;;4325824;27;20048;-81
2024/04/12 13:13:28;;;;;;;4.30;1.95;;;22.30;36.80;;;;;;4326700;27;19999;-80
2024/04/12 13:15:32;;;;;;;5.00;2.03;;;22.30;36.30;;;;;;4316428;27;20013;-79
2024/04/12 13:17:36;;;;;;;5.97;1.90;;;22.20;36.40;;;;;;4325840;27;20330;-78
2024/04/12 13:19:43;;;;;;;5.28;1.83;;;22.10;37.00;;;;;;4331643;27;20019;-81
2024/04/12 13:21:46;;;;;;;4.68;2.00;;;22.40;38.50;;;;;;4319579;27;20015;-81
2024/04/12 13:23:49;;;;;;;4.90;2.13;;;22.60;37.40;;;;;;4316387;27;20003;-82
2024/04/12 13:25:52;;;;;;;4.07;1.70;;;22.50;35.70;;;;;;4314298;27;20007;-79
2024/04/12 13:27:55;;;;;;;6.63;2.20;;;22.70;36.90;;;;;;4313362;27;20101;-81
2024/04/12 13:29:56;;;;;;;7.60;1.83;;;23.00;36.60;;;;;;4319510;27;20007;-81
2024/04/12 13:32:00;;;;;;;5.47;2.17;;;23.10;35.70;;;;;;4321124;27;20441;-80
2024/04/12 13:34:01;;;;;;;4.80;1.80;;;23.10;36.60;;;;;;4313441;27;20032;-80
2024/04/12 13:36:10;;;;;;;5.43;2.10;;;23.40;36.00;;;;;;4314149;27;20533;-81
2024/04/12 13:38:12;;;;;;;6.18;2.22;;;23.30;35.90;;;;;;4317515;27;20003;-81
2024/04/12 13:40:18;;;;;;;5.15;1.92;;;23.50;36.50;;;;;;4333222;27;20004;-84
2024/04/12 13:42:20;;;;;;;4.90;1.70;;;23.80;36.30;;;;;;4337656;27;20082;-80
2024/04/12 13:50:46;;;;;;;5.38;2.10;;;24.10;36.90;;;;;;4327069;27;20003;-80
2024/04/12 13:51:33;;;;;;;6.28;2.20;;;24.90;34.40;;;;;;4320862;27;20469;-78
2024/04/12 13:53:38;;;;;;;5.63;2.00;;;25.00;33.60;;;;;;4325041;27;20000;-77
2024/04/12 13:55:39;;;;;;;6.03;2.00;;;25.00;34.50;;;;;;4324027;27;20816;-79
2024/04/12 13:57:43;;;;;;;8.00;2.47;;;25.10;32.60;;;;;;4317297;27;20017;-78
2024/04/12 13:59:44;;;;;;;6.40;2.47;;;25.10;32.10;;;;;;4323730;27;20321;-78
2024/04/12 14:01:49;;;;;;;6.05;2.20;;;25.30;33.70;;;;;;4320432;27;20007;-77
2024/04/12 14:03:53;;;;;;;8.63;2.50;;;25.10;31.60;;;;;;4323985;27;20090;-78
2024/04/12 14:05:56;;;;;;;5.50;2.10;;;25.30;32.00;;;;;;4313027;27;20015;-77
2024/04/12 14:08:07;;;;;;;4.70;1.85;;;25.70;31.80;;;;;;4327368;27;20511;-78
2024/04/12 14:10:08;;;;;;;5.85;1.70;;;25.80;33.00;;;;;;4334998;27;20711;-78
2024/04/12 14:12:12;;;;;;;4.47;2.00;;;26.20;33.30;;;;;;4324159;27;20016;-78
2024/04/12 14:14:13;;;;;;;6.32;1.85;;;26.50;31.00;;;;;;4335746;27;20013;-78
2024/04/12 14:16:16;;;;;;;4.45;1.60;;;26.70;30.30;;;;;;4312438;27;20391;-78
2024/04/12 14:18:20;;;;;;;6.47;1.90;;;27.10;29.90;;;;;;4329633;27;20017;-78
2024/04/12 14:20:21;;;;;;;5.70;1.98;;;27.20;28.90;;;;;;4320106;27;20003;-78
2024/04/12 14:22:25;;;;;;;5.47;2.00;;;28.30;28.70;;;;;;4332925;27;20010;-78
2024/04/12 14:26:50;;;;;;;5.93;1.98;;;31.40;27.10;;;;;;4326163;27;20040;-79
2024/04/12 14:28:51;;;;;;;5.32;2.00;;;32.10;26.00;;;;;;4312796;27;20003;-78
2024/04/12 14:30:55;;;;;;;4.82;2.30;;;32.70;25.50;;;;;;4312930;27;20015;-80
2024/04/12 14:32:56;;;;;;;6.63;2.20;;;32.30;24.90;;;;;;4312920;27;20007;-79
2024/04/12 14:35:00;;;;;;;7.57;2.40;;;32.70;25.20;;;;;;4316033;27;20015;-79
2024/04/12 14:37:01;;;;;;;7.45;2.17;;;32.80;24.70;;;;;;4322657;27;20000;-77
2024/04/12 14:39:15;;;;;;;5.40;2.03;;;32.50;24.60;;;;;;4325834;27;19999;-78
2024/04/12 14:41:19;;;;;;;6.45;2.42;;;32.50;25.20;;;;;;4316913;27;20015;-77
2024/04/12 14:43:24;;;;;;;6.40;2.05;;;33.30;25.00;;;;;;4322700;27;20040;-77
2024/04/12 14:45:25;;;;;;;5.80;1.70;;;34.10;25.00;;;;;;4313621;27;20007;-78
2024/04/12 14:47:29;;;;;;;5.88;1.80;;;34.70;24.40;;;;;;4324741;27;20014;-79
2024/04/12 14:49:30;;;;;;;6.35;2.20;;;34.60;23.40;;;;;;4334909;27;20018;-78
2024/04/12 14:51:37;;;;;;;4.35;1.60;;;34.30;22.70;;;;;;4331190;27;20015;-77
2024/04/12 14:53:38;;;;;;;4.93;1.90;;;34.60;23.40;;;;;;4321779;27;20007;-76
2024/04/12 14:55:41;;;;;;;4.32;1.98;;;34.80;22.50;;;;;;4318541;27;20083;-78
2024/04/12 14:57:47;;;;;;;5.78;2.10;;;35.20;23.00;;;;;;4327961;27;20398;-77
2024/04/12 14:59:50;;;;;;;;;;;35.80;22.50;;;;;;4318779;27;20004;-76
2024/04/12 15:01:51;;;;;;;6.35;1.80;;;36.20;22.40;;;;;;4337699;27;19927;-78
2024/04/12 15:48:17;;;;;;;12.35;5.75;;;30.40;28.30;;;;;;4333980;27;20078;-77
2024/04/12 15:50:26;;;;;;;14.10;6.57;;;30.20;28.20;;;;;;4277916;27;20016;-78
2024/04/12 15:52:33;;;;;;;11.52;5.18;;;29.50;28.90;;;;;;4266856;27;20005;-79
2024/04/12 15:54:37;;;;;;;15.05;6.20;;;29.30;29.00;;;;;;4271489;27;20011;-79
2024/04/12 16:10:49;;;;;;;12.32;5.63;;;29.30;29.20;;;;;;4257480;27;20020;-76
2024/04/12 16:12:50;;;;;;;14.15;5.50;;;29.20;29.10;;;;;;4257917;27;20465;-78
2024/04/12 16:14:53;;;;;;;10.35;4.63;;;29.20;29.10;;;;;;4262836;27;20037;-77
2024/04/12 16:16:59;;;;;;;8.13;3.90;;;29.30;29.70;;;;;;4273842;27;20009;-79
2024/04/12 16:19:03;;;;;;;9.95;3.88;;;29.30;30.00;;;;;;4266059;27;20698;-78
2024/04/12 16:21:04;;;;;;;8.23;4.28;;;29.30;30.00;;;;;;4266698;27;20008;-77
2024/04/12 16:23:10;;;;;;;10.85;4.03;;;29.20;29.40;;;;;;4269539;27;20049;-79
2024/04/12 16:25:13;;;;;;;12.43;4.10;;;29.20;29.50;;;;;;4262064;27;20037;-79
2024/04/12 16:27:17;;;;;;;9.57;4.28;;;29.00;28.90;;;;;;4260971;27;20009;-79
2024/04/12 16:29:17;;;;;;;8.27;3.42;;;28.80;29.50;;;;;;4258040;27;20026;-81
2024/04/12 16:31:22;;;;;;;8.50;3.60;;;28.60;29.70;;;;;;4267977;27;20394;-79
2024/04/12 16:33:25;;;;;;;11.35;3.50;;;28.40;29.80;;;;;;4259298;27;20005;-79
2024/04/12 16:35:29;;;;;;;7.53;3.05;;;28.30;30.00;;;;;;4268010;27;20005;-80
2024/04/12 16:37:30;;;;;;;6.50;3.03;;;28.20;30.00;;;;;;4265825;27;20012;-79
2024/04/12 16:39:35;;;;;;;7.68;3.53;;;28.40;30.00;;;;;;4259410;27;20439;-78
2024/04/12 16:41:35;;;;;;;10.10;3.83;;;28.40;29.80;;;;;;4270187;27;20015;-80
2024/04/12 16:43:39;;;;;;;10.65;3.40;;;28.30;29.60;;;;;;4259348;27;20010;-79
2024/04/12 16:45:40;;;;;;;9.95;3.22;;;27.90;29.80;;;;;;4270036;27;20009;-79
2024/04/12 16:47:44;;;;;;;9.77;3.00;;;27.70;30.20;;;;;;4259015;27;20088;-80
2024/04/12 16:49:48;;;;;;;8.70;3.47;;;27.70;30.20;;;;;;4259322;27;20006;-79
2024/04/12 16:51:54;;;;;;;7.85;2.80;;;27.60;30.30;;;;;;4270410;27;20648;-79
2024/04/12 16:53:55;;;;;;;9.38;2.75;;;27.50;31.40;;;;;;4255785;27;20446;-79
2024/04/12 16:55:59;;;;;;;7.70;2.88;;;27.20;30.50;;;;;;4270066;27;20017;-80
2024/04/12 16:58:04;;;;;;;10.68;2.70;;;26.40;31.30;;;;;;4258180;27;20005;-79
2024/04/12 17:00:09;;;;;;;8.55;2.70;;;26.40;32.20;;;;;;4258280;27;20005;-79
2024/04/12 17:02:10;;;;;;;6.47;2.20;;;26.60;32.00;;;;;;4259237;27;20005;-80
2024/04/12 17:04:13;;;;;;;5.90;2.38;;;26.60;31.80;;;;;;4274034;27;20008;-80
2024/04/12 17:06:17;;;;;;;7.35;2.22;;;26.60;32.10;;;;;;4269499;27;20019;-80
2024/04/12 17:08:20;;;;;;;7.57;2.35;;;26.60;32.40;;;;;;4258784;27;20016;-80
2024/04/12 17:10:22;;;;;;;7.45;2.20;;;26.30;32.10;;;;;;4258814;27;20005;-79
2024/04/12 17:12:25;;;;;;;7.00;2.42;;;26.10;32.90;;;;;;4265913;27;20017;-79
2024/04/12 17:14:26;;;;;;;7.68;2.63;;;26.10;33.10;;;;;;4269803;27;20004;-79
2024/04/12 17:16:30;;;;;;;6.82;2.25;;;26.00;32.70;;;;;;4269856;27;20013;-80
2024/04/12 17:18:31;;;;;;;8.15;2.40;;;25.90;33.40;;;;;;4265986;27;20016;-80
2024/04/12 17:20:35;;;;;;;6.47;2.40;;;25.80;32.80;;;;;;4260975;27;20021;-80
2024/04/12 17:22:40;;;;;;;7.55;2.10;;;25.40;33.20;;;;;;4258792;27;20453;-82
2024/04/12 17:24:46;;;;;;;5.97;2.40;;;25.10;33.80;;;;;;4260105;27;20001;-81
2024/04/12 17:26:48;;;;;;;10.45;2.70;;;25.00;34.60;;;;;;4282331;27;20020;-81
2024/04/12 17:28:51;;;;;;;7.57;2.50;;;25.00;34.20;;;;;;4270201;27;20023;-80
2024/04/12 17:30:56;;;;;;;7.55;2.35;;;25.10;34.70;;;;;;4270130;27;20448;-81
2024/04/12 17:32:59;;;;;;;8.05;2.28;;;24.90;34.70;;;;;;4271258;27;20013;-79
2024/04/12 17:35:00;;;;;;;8.43;2.58;;;24.90;35.00;;;;;;4258412;27;20009;-80
2024/04/12 17:37:04;;;;;;;7.75;2.67;;;24.80;35.10;;;;;;4260839;27;20068;-80
2024/04/12 17:39:08;;;;;;;6.75;2.58;;;24.60;35.30;;;;;;4269673;27;20019;-80
2024/04/12 17:41:12;;;;;;;6.82;2.20;;;24.60;35.60;;;;;;4256510;27;20023;-79
2024/04/12 17:43:13;;;;;;;6.20;1.95;;;24.50;36.20;;;;;;4257298;27;20001;-80
2024/04/12 17:45:18;;;;;;;6.05;1.90;;;24.30;36.40;;;;;;4257480;27;20248;-79
2024/04/12 17:47:23;;;;;;;7.35;2.25;;;24.20;37.10;;;;;;4268802;27;20009;-78
2024/04/12 17:49:27;;;;;;;8.02;2.08;;;24.10;37.60;;;;;;4260007;27;20391;-79
2024/04/12 17:51:28;;;;;;;5.95;2.20;;;23.90;37.90;;;;;;4267558;27;20009;-77
2024/04/12 17:53:32;;;;;;;9.75;2.40;;;23.80;38.40;;;;;;4265824;27;20027;-77